Time;durP1;ratioP1;P1;durP2;ratioP2;P2;SDS_P1;SDS_P2;PMS_P1;PMS_P2;Temp;Humidity;BMP_temperature;BMP_pressure;BME280_temperature;BME280_humidity;BME280_pressure;Samples;Min_cycle;Max_cycle;Signal;HPM_P1;HPM_P2
2021/04/09 00:01:43;;;;;;;10.60;8.80;;;3.90;99.90;;;;;;5013592;28;20407;-56
2021/04/09 00:04:09;;;;;;;11.13;8.80;;;4.00;99.90;;;;;;5013607;28;20886;-57
2021/04/09 00:06:35;;;;;;;12.27;9.00;;;4.00;99.90;;;;;;5013582;28;20405;-57
2021/04/09 00:09:01;;;;;;;9.43;8.30;;;4.10;99.90;;;;;;5013369;28;20521;-57
2021/04/09 00:11:27;;;;;;;10.20;8.67;;;4.20;99.90;;;;;;5013274;28;20343;-57
2021/04/09 00:13:53;;;;;;;10.83;8.03;;;4.20;99.90;;;;;;5013174;28;20765;-57
2021/04/09 00:16:18;;;;;;;9.77;8.40;;;4.20;99.90;;;;;;5013413;28;20515;-56
2021/04/09 00:18:44;;;;;;;9.90;8.40;;;4.20;99.90;;;;;;5013379;28;20188;-56
2021/04/09 00:21:09;;;;;;;9.17;8.27;;;4.20;99.90;;;;;;5013190;28;20175;-57
2021/04/09 00:23:35;;;;;;;11.23;8.57;;;4.10;99.90;;;;;;5013669;28;20191;-59
2021/04/09 00:26:02;;;;;;;10.97;8.57;;;4.10;99.90;;;;;;5013131;28;20186;-56
2021/04/09 00:28:27;;;;;;;10.80;9.03;;;4.00;99.90;;;;;;5013069;28;20727;-57
2021/04/09 00:30:53;;;;;;;9.23;7.97;;;4.10;99.90;;;;;;5013363;28;20411;-57
2021/04/09 00:33:18;;;;;;;10.70;8.60;;;4.00;99.90;;;;;;5013388;28;20187;-56
2021/04/09 00:35:45;;;;;;;12.03;8.83;;;4.00;99.90;;;;;;5012985;28;20208;-57
2021/04/09 00:38:11;;;;;;;10.00;8.20;;;4.00;99.90;;;;;;5012842;28;20171;-57
2021/04/09 00:40:38;;;;;;;10.33;8.17;;;4.00;99.90;;;;;;5013059;28;20557;-57
2021/04/09 00:43:07;;;;;;;11.53;8.80;;;3.90;99.90;;;;;;5017924;28;20800;-57
2021/04/09 00:45:36;;;;;;;9.73;8.73;;;3.80;99.90;;;;;;5027878;28;20413;-57
2021/04/09 00:48:03;;;;;;;10.90;9.27;;;3.70;99.90;;;;;;5032816;28;20456;-57
2021/04/09 00:50:29;;;;;;;12.80;9.53;;;3.70;99.90;;;;;;5032854;28;20409;-57
2021/04/09 00:52:56;;;;;;;12.33;10.10;;;3.70;99.90;;;;;;5032568;28;20406;-57
2021/04/09 00:55:22;;;;;;;10.67;8.17;;;3.70;99.90;;;;;;5032874;28;20175;-57
2021/04/09 00:57:50;;;;;;;12.00;9.40;;;3.70;99.90;;;;;;5032473;28;20488;-57
2021/04/09 01:00:16;;;;;;;10.00;8.43;;;3.60;99.90;;;;;;5035164;28;20433;-57
2021/04/09 01:02:42;;;;;;;9.17;7.90;;;3.50;99.90;;;;;;5036215;28;20405;-56
2021/04/09 01:05:10;;;;;;;11.07;8.90;;;3.50;99.90;;;;;;5036286;28;20421;-56
2021/04/09 01:07:38;;;;;;;11.07;9.40;;;3.40;99.90;;;;;;5036107;28;20168;-56
2021/04/09 01:10:05;;;;;;;9.10;8.20;;;3.40;99.90;;;;;;5036270;28;20487;-56
2021/04/09 01:12:31;;;;;;;11.40;8.57;;;3.40;99.90;;;;;;5021766;28;20409;-57
2021/04/09 01:14:57;;;;;;;8.23;7.30;;;3.50;99.90;;;;;;5016084;28;20953;-57
2021/04/09 01:17:37;;;;;;;12.97;9.10;;;3.50;99.90;;;;;;5016125;28;20446;-56
2021/04/09 01:20:27;;;;;;;11.80;8.10;;;3.60;99.90;;;;;;5015971;28;20799;-57
2021/04/09 01:23:27;;;;;;;9.30;8.17;;;3.70;99.90;;;;;;5016320;28;20478;-57
2021/04/09 01:26:17;;;;;;;12.23;8.97;;;3.60;99.90;;;;;;5016341;28;20391;-57
2021/04/09 01:29:04;;;;;;;11.97;8.83;;;3.50;99.90;;;;;;5015998;28;20429;-57
2021/04/09 01:32:01;;;;;;;8.90;7.83;;;3.30;99.90;;;;;;5016230;28;20890;-57
2021/04/09 01:34:35;;;;;;;10.33;9.30;;;3.20;99.90;;;;;;5016230;28;20570;-57
2021/04/09 01:37:24;;;;;;;8.60;7.80;;;3.30;99.90;;;;;;5016082;28;20445;-56
2021/04/09 01:40:09;;;;;;;8.70;7.80;;;3.40;99.90;;;;;;5015589;28;20444;-57
2021/04/09 01:42:36;;;;;;;9.90;7.70;;;3.40;99.90;;;;;;5015601;28;20906;-57
2021/04/09 01:45:04;;;;;;;11.73;8.60;;;3.30;99.90;;;;;;5016181;28;20755;-56
2021/04/09 01:47:32;;;;;;;9.63;8.73;;;3.40;99.90;;;;;;5015597;28;20410;-57
2021/04/09 01:50:01;;;;;;;10.40;8.43;;;3.30;99.90;;;;;;5015497;28;20419;-57
2021/04/09 01:52:29;;;;;;;9.50;7.30;;;3.40;99.90;;;;;;5015503;28;20494;-56
2021/04/09 01:54:56;;;;;;;9.20;7.80;;;3.30;99.90;;;;;;5015689;28;20937;-57
2021/04/09 01:57:25;;;;;;;11.83;8.63;;;3.30;99.90;;;;;;5015351;28;20958;-57
2021/04/09 01:59:52;;;;;;;8.63;7.83;;;3.30;99.90;;;;;;5015519;28;20811;-57
2021/04/09 02:02:19;;;;;;;10.30;8.00;;;3.30;99.90;;;;;;5015719;28;20401;-55
2021/04/09 02:04:46;;;;;;;10.07;8.00;;;3.40;99.90;;;;;;5015344;28;20771;-55
2021/04/09 02:07:15;;;;;;;9.97;7.70;;;3.40;99.90;;;;;;5016057;28;20751;-57
2021/04/09 02:09:43;;;;;;;12.10;8.10;;;3.50;99.90;;;;;;5015183;28;20425;-57
2021/04/09 02:12:11;;;;;;;14.10;8.63;;;3.50;99.90;;;;;;5015034;28;20405;-56
2021/04/09 02:14:37;;;;;;;7.97;7.10;;;3.50;99.90;;;;;;5015291;28;20411;-56
2021/04/09 02:17:03;;;;;;;8.03;7.10;;;3.50;99.90;;;;;;5014980;28;20450;-57
2021/04/09 02:19:29;;;;;;;9.27;8.10;;;3.60;99.90;;;;;;5015210;28;20510;-57
2021/04/09 02:21:57;;;;;;;12.90;8.30;;;3.60;99.90;;;;;;5015138;28;20431;-57
2021/04/09 02:24:22;;;;;;;8.90;7.70;;;3.60;99.90;;;;;;5014945;28;20440;-57
2021/04/09 02:26:48;;;;;;;8.33;7.37;;;3.50;99.90;;;;;;5014803;28;20446;-57
2021/04/09 02:29:15;;;;;;;8.30;7.50;;;3.50;99.90;;;;;;5014777;28;20246;-57
2021/04/09 02:31:42;;;;;;;8.73;6.57;;;3.50;99.90;;;;;;5015032;28;20175;-57
2021/04/09 02:34:08;;;;;;;8.33;6.80;;;3.60;99.90;;;;;;5014999;28;20403;-57
2021/04/09 02:36:34;;;;;;;10.07;8.17;;;3.60;99.90;;;;;;5014824;28;20484;-57
2021/04/09 02:39:12;;;;;;;7.47;6.77;;;3.60;99.90;;;;;;5014586;28;20471;-55
2021/04/09 02:41:43;;;;;;;10.33;7.77;;;3.60;99.90;;;;;;5014603;28;20239;-57
2021/04/09 02:44:11;;;;;;;8.20;6.83;;;3.70;99.90;;;;;;5014852;28;20395;-56
2021/04/09 02:46:47;;;;;;;8.40;7.60;;;3.70;99.90;;;;;;5014480;28;20473;-57
2021/04/09 02:49:19;;;;;;;9.90;6.33;;;3.70;99.90;;;;;;5015055;28;20432;-57
2021/04/09 02:51:47;;;;;;;8.37;7.47;;;3.60;99.90;;;;;;5014736;28;20402;-57
2021/04/09 02:54:17;;;;;;;7.80;7.03;;;3.60;99.90;;;;;;5014513;28;20434;-57
2021/04/09 02:56:43;;;;;;;6.77;6.07;;;3.70;99.90;;;;;;5014285;28;20546;-57
2021/04/09 02:59:12;;;;;;;8.13;6.33;;;3.80;99.90;;;;;;5014378;28;20419;-57
2021/04/09 03:01:40;;;;;;;8.70;7.37;;;3.70;99.90;;;;;;5014177;28;20407;-57
2021/04/09 03:04:06;;;;;;;7.87;7.07;;;3.70;99.90;;;;;;5014204;28;20419;-55
2021/04/09 03:06:34;;;;;;;8.60;6.37;;;3.60;99.90;;;;;;5014257;28;20414;-56
2021/04/09 03:09:00;;;;;;;7.73;6.73;;;3.70;99.90;;;;;;5013989;28;20473;-57
2021/04/09 03:11:25;;;;;;;6.70;6.10;;;3.70;99.90;;;;;;5014342;28;20791;-57
2021/04/09 03:13:51;;;;;;;7.87;5.73;;;3.70;99.90;;;;;;5014962;28;20168;-57
2021/04/09 03:16:18;;;;;;;9.33;6.60;;;3.70;99.90;;;;;;5014248;28;20203;-57
2021/04/09 03:18:45;;;;;;;8.83;6.70;;;3.70;99.90;;;;;;5014063;28;20190;-56
2021/04/09 03:21:10;;;;;;;8.20;7.20;;;3.70;99.90;;;;;;5013098;28;20416;-55
2021/04/09 03:23:36;;;;;;;7.30;6.37;;;3.60;99.90;;;;;;5013860;28;20900;-57
2021/04/09 03:26:01;;;;;;;9.57;7.33;;;3.60;99.90;;;;;;5013831;28;20176;-57
2021/04/09 03:28:27;;;;;;;7.60;6.70;;;3.60;99.90;;;;;;5014116;28;20610;-57
2021/04/09 03:30:53;;;;;;;8.03;6.83;;;3.50;99.90;;;;;;5013699;28;20170;-56
2021/04/09 03:33:24;;;;;;;5.97;5.37;;;3.50;99.90;;;;;;5013754;28;20179;-57
2021/04/09 03:35:49;;;;;;;10.07;7.40;;;3.60;99.90;;;;;;5018588;28;20186;-56
2021/04/09 03:40:47;;;;;;;7.20;6.50;;;3.50;99.90;;;;;;5016506;22;20223;-49
2021/04/09 03:43:14;;;;;;;12.17;6.70;;;3.30;99.90;;;;;;4994247;28;20418;-51
2021/04/09 03:45:40;;;;;;;8.47;6.40;;;3.30;99.90;;;;;;4994056;28;20168;-51
2021/04/09 03:48:07;;;;;;;9.20;7.20;;;3.40;99.90;;;;;;4992682;28;20934;-49
2021/04/09 03:50:33;;;;;;;8.33;6.67;;;3.40;99.90;;;;;;4994322;28;20953;-52
2021/04/09 03:52:58;;;;;;;7.00;6.27;;;3.40;99.90;;;;;;4994417;28;20407;-50
2021/04/09 03:55:24;;;;;;;6.70;6.00;;;3.20;99.90;;;;;;4994218;28;20166;-49
2021/04/09 03:57:50;;;;;;;7.10;6.40;;;3.20;99.90;;;;;;4993971;28;20207;-55
2021/04/09 04:00:17;;;;;;;7.17;6.50;;;3.20;99.90;;;;;;4994346;28;20792;-52
2021/04/09 04:02:42;;;;;;;7.73;6.50;;;3.20;99.90;;;;;;4993910;28;20233;-56
2021/04/09 04:05:08;;;;;;;7.03;6.40;;;3.30;99.90;;;;;;4994134;28;20407;-56
2021/04/09 04:07:35;;;;;;;7.87;6.40;;;3.40;99.90;;;;;;4994300;28;20712;-56
2021/04/09 04:10:00;;;;;;;8.10;5.80;;;3.50;99.90;;;;;;4993794;28;20435;-56
2021/04/09 04:12:26;;;;;;;8.07;6.50;;;3.50;99.90;;;;;;4993918;28;20409;-55
2021/04/09 04:14:52;;;;;;;7.07;6.47;;;3.40;99.90;;;;;;4994115;28;20632;-55
2021/04/09 04:17:19;;;;;;;6.30;5.77;;;3.40;99.90;;;;;;4993541;28;20275;-54
2021/04/09 04:19:44;;;;;;;7.53;6.83;;;3.50;99.90;;;;;;4994001;28;20190;-53
2021/04/09 04:22:10;;;;;;;7.97;6.07;;;3.50;99.90;;;;;;4994322;28;20486;-54
2021/04/09 04:24:36;;;;;;;7.07;6.03;;;3.40;99.90;;;;;;4993550;28;20161;-54
2021/04/09 04:27:01;;;;;;;7.73;6.93;;;3.30;99.90;;;;;;4993519;28;20187;-54
2021/04/09 04:29:27;;;;;;;6.90;6.17;;;3.40;99.90;;;;;;4993764;28;20224;-54
2021/04/09 04:31:52;;;;;;;7.10;6.40;;;3.40;99.90;;;;;;4993963;28;20191;-50
2021/04/09 04:34:18;;;;;;;7.57;6.30;;;3.50;99.90;;;;;;4996464;28;20169;-55
2021/04/09 04:36:44;;;;;;;7.33;5.20;;;3.50;99.90;;;;;;4997851;28;20661;-55
2021/04/09 04:39:09;;;;;;;7.07;6.47;;;3.50;99.90;;;;;;4997786;28;20196;-55
2021/04/09 04:41:35;;;;;;;8.57;6.20;;;3.60;99.90;;;;;;4997736;28;20192;-53
2021/04/09 04:44:01;;;;;;;7.47;6.00;;;3.70;99.90;;;;;;4997247;28;20183;-54
2021/04/09 04:46:26;;;;;;;7.47;6.33;;;3.60;99.90;;;;;;4997195;28;20173;-51
2021/04/09 04:48:52;;;;;;;8.43;6.87;;;3.60;99.90;;;;;;4997358;28;20192;-54
2021/04/09 04:51:19;;;;;;;9.93;6.40;;;3.50;99.90;;;;;;4997422;28;20664;-54
2021/04/09 04:53:44;;;;;;;9.03;7.43;;;3.60;99.90;;;;;;4997333;28;20172;-52
2021/04/09 04:56:10;;;;;;;7.77;5.77;;;3.60;99.90;;;;;;4996833;28;21037;-54
2021/04/09 04:58:36;;;;;;;8.33;7.33;;;3.60;99.90;;;;;;4996816;28;20191;-55
2021/04/09 05:01:01;;;;;;;7.87;6.80;;;3.60;99.90;;;;;;4996970;28;20206;-53
2021/04/09 05:03:27;;;;;;;7.53;6.07;;;3.70;99.90;;;;;;4997320;28;20171;-54
2021/04/09 05:05:52;;;;;;;11.53;7.37;;;3.80;99.90;;;;;;4996991;28;20221;-55
2021/04/09 05:08:18;;;;;;;9.00;7.50;;;3.90;99.90;;;;;;4997210;28;20250;-51
2021/04/09 05:10:44;;;;;;;11.90;8.07;;;3.80;99.90;;;;;;4997372;28;20188;-54
2021/04/09 05:13:09;;;;;;;11.07;7.77;;;3.90;99.90;;;;;;4997032;28;20195;-53
2021/04/09 05:15:35;;;;;;;8.37;7.20;;;4.00;99.90;;;;;;4996545;28;20173;-55
2021/04/09 05:18:00;;;;;;;8.83;7.83;;;4.10;99.90;;;;;;4996656;28;20207;-55
2021/04/09 05:20:26;;;;;;;6.73;6.03;;;4.20;99.90;;;;;;4996764;28;20184;-54
2021/04/09 05:22:51;;;;;;;7.67;6.40;;;4.30;99.90;;;;;;4996454;28;20644;-51
2021/04/09 05:25:17;;;;;;;7.47;6.77;;;4.30;99.90;;;;;;4996353;28;20165;-56
2021/04/09 05:27:43;;;;;;;11.27;8.37;;;4.40;99.90;;;;;;4996679;28;20279;-56
2021/04/09 05:30:09;;;;;;;8.13;7.37;;;4.30;99.90;;;;;;4996696;28;20267;-55
2021/04/09 05:32:34;;;;;;;8.40;6.13;;;4.40;99.90;;;;;;4996558;28;20184;-54
2021/04/09 05:35:00;;;;;;;9.70;7.60;;;4.50;99.90;;;;;;4996588;28;20412;-54
2021/04/09 05:37:26;;;;;;;12.17;7.73;;;4.50;99.90;;;;;;4996641;28;20218;-55
2021/04/09 05:39:51;;;;;;;9.87;7.53;;;4.60;99.90;;;;;;4996434;28;20204;-56
2021/04/09 05:42:17;;;;;;;10.43;7.83;;;4.70;99.90;;;;;;4996358;28;20222;-55
2021/04/09 05:44:43;;;;;;;7.93;7.13;;;4.70;99.90;;;;;;4995739;28;20197;-55
2021/04/09 05:47:10;;;;;;;9.20;7.40;;;4.80;99.90;;;;;;4996130;28;20338;-55
2021/04/09 05:49:35;;;;;;;14.00;8.30;;;4.90;99.90;;;;;;4995796;28;20424;-55
2021/04/09 05:52:03;;;;;;;9.50;8.50;;;5.00;99.90;;;;;;4995714;28;20916;-55
2021/04/09 05:54:35;;;;;;;12.17;8.30;;;5.00;99.90;;;;;;4995915;28;20181;-51
2021/04/09 05:57:01;;;;;;;11.20;8.33;;;5.10;99.90;;;;;;4996095;28;20439;-54
2021/04/09 05:59:27;;;;;;;9.70;7.47;;;5.20;99.90;;;;;;4995951;28;20451;-54
2021/04/09 06:01:53;;;;;;;11.70;8.70;;;5.20;99.90;;;;;;4995968;28;20412;-55
2021/04/09 06:04:18;;;;;;;12.13;8.30;;;5.30;99.90;;;;;;4996112;28;20415;-55
2021/04/09 06:06:44;;;;;;;8.50;7.13;;;5.50;99.90;;;;;;4996056;28;20304;-56
2021/04/09 06:09:10;;;;;;;9.60;7.70;;;5.70;99.90;;;;;;4996003;28;20555;-56
2021/04/09 06:11:35;;;;;;;12.10;7.37;;;5.80;99.90;;;;;;4995654;28;20176;-49
2021/04/09 06:14:01;;;;;;;12.27;7.60;;;6.00;99.90;;;;;;4995958;28;20292;-56
2021/04/09 06:16:27;;;;;;;7.43;6.70;;;6.10;99.90;;;;;;4995504;28;20203;-55
2021/04/09 06:18:52;;;;;;;11.03;6.77;;;6.30;99.90;;;;;;4995807;28;20559;-52
2021/04/09 06:21:18;;;;;;;8.03;7.00;;;6.40;99.90;;;;;;4996099;28;20176;-55
2021/04/09 06:23:44;;;;;;;8.57;7.67;;;6.50;99.90;;;;;;4995756;28;20188;-55
2021/04/09 06:26:09;;;;;;;8.37;7.67;;;6.70;99.90;;;;;;4995940;28;20172;-51
2021/04/09 06:28:35;;;;;;;9.23;7.13;;;6.90;99.90;;;;;;5000816;28;20176;-56
2021/04/09 06:31:01;;;;;;;12.30;9.60;;;7.00;99.90;;;;;;5009495;28;20211;-53
2021/04/09 06:33:26;;;;;;;11.00;8.10;;;7.20;99.90;;;;;;5015060;28;20168;-55
2021/04/09 06:35:53;;;;;;;10.77;7.63;;;7.30;99.90;;;;;;5015122;28;20206;-53
2021/04/09 06:38:18;;;;;;;12.77;8.60;;;7.50;99.90;;;;;;5015177;28;20182;-51
2021/04/09 06:40:45;;;;;;;9.03;7.33;;;7.70;99.90;;;;;;5013316;28;20639;-53
2021/04/09 06:43:11;;;;;;;10.33;8.33;;;7.80;99.90;;;;;;5015378;28;20550;-52
2021/04/09 06:45:39;;;;;;;11.43;8.90;;;8.00;99.50;;;;;;5014743;28;20408;-51
2021/04/09 06:48:06;;;;;;;12.53;8.67;;;8.00;98.80;;;;;;5015283;28;20493;-56
2021/04/09 06:50:32;;;;;;;8.43;7.57;;;8.20;98.50;;;;;;5015442;28;20427;-52
2021/04/09 06:52:57;;;;;;;9.67;7.63;;;8.30;98.50;;;;;;5016777;28;20472;-51
2021/04/09 06:55:23;;;;;;;8.97;7.00;;;8.40;97.70;;;;;;5021552;28;20410;-52
2021/04/09 06:57:52;;;;;;;9.97;7.87;;;8.60;97.50;;;;;;5019862;28;20274;-56
2021/04/09 07:00:20;;;;;;;15.30;8.33;;;8.80;97.50;;;;;;5012948;28;20920;-55
2021/04/09 07:02:46;;;;;;;7.70;6.90;;;9.00;96.10;;;;;;5014144;28;20409;-56
2021/04/09 07:05:12;;;;;;;12.30;7.10;;;9.20;95.70;;;;;;5014680;28;20404;-52
2021/04/09 07:07:38;;;;;;;7.87;6.63;;;9.40;95.00;;;;;;5014412;28;20176;-55
2021/04/09 07:10:05;;;;;;;7.20;5.97;;;9.40;93.90;;;;;;5014109;28;20661;-56
2021/04/09 07:12:32;;;;;;;6.63;5.93;;;9.50;93.40;;;;;;5009814;28;20265;-57
2021/04/09 07:15:08;;;;;;;9.60;6.67;;;9.80;92.90;;;;;;4994457;28;20767;-56
2021/04/09 07:17:37;;;;;;;9.27;6.70;;;9.90;92.30;;;;;;4994214;28;20440;-56
2021/04/09 07:20:17;;;;;;;6.03;5.33;;;10.10;90.70;;;;;;4994491;28;20421;-56
2021/04/09 07:23:08;;;;;;;7.37;4.70;;;10.20;88.90;;;;;;4994513;28;20777;-57
2021/04/09 07:25:41;;;;;;;5.90;5.10;;;10.10;85.50;;;;;;4994726;28;20451;-57
2021/04/09 07:28:12;;;;;;;5.33;4.60;;;9.80;89.30;;;;;;4994138;28;20391;-57
2021/04/09 07:30:39;;;;;;;4.60;4.20;;;9.80;88.90;;;;;;4994185;28;20829;-57
2021/04/09 07:33:07;;;;;;;6.90;5.00;;;9.90;86.40;;;;;;4994955;28;20460;-56
2021/04/09 07:35:47;;;;;;;4.50;4.10;;;10.30;84.20;;;;;;4994132;28;20407;-57
2021/04/09 07:38:34;;;;;;;4.87;4.37;;;10.40;80.90;;;;;;4994252;28;20830;-56
2021/04/09 07:41:01;;;;;;;5.60;4.40;;;10.50;80.30;;;;;;4994120;28;20410;-56
2021/04/09 07:43:30;;;;;;;4.90;4.40;;;10.60;79.70;;;;;;4994466;28;20399;-56
2021/04/09 07:45:59;;;;;;;6.57;4.50;;;10.60;80.10;;;;;;4989426;28;20427;-57
2021/04/09 07:48:28;;;;;;;5.97;4.90;;;10.60;82.00;;;;;;4993997;28;20770;-57
2021/04/09 07:50:54;;;;;;;6.13;5.07;;;11.00;79.90;;;;;;4994147;28;20830;-55
2021/04/09 07:53:41;;;;;;;5.57;4.10;;;10.90;77.50;;;;;;4994265;28;20473;-57
2021/04/09 07:56:11;;;;;;;4.87;4.37;;;10.90;77.20;;;;;;4992632;28;20543;-57
2021/04/09 07:58:39;;;;;;;7.87;4.80;;;10.90;76.80;;;;;;4993637;28;20410;-55
2021/04/09 08:01:16;;;;;;;5.60;4.90;;;11.00;76.30;;;;;;4994178;28;20409;-55
2021/04/09 08:03:42;;;;;;;6.20;4.63;;;10.90;74.40;;;;;;4994407;28;20387;-57
2021/04/09 08:06:15;;;;;;;5.23;4.30;;;10.90;75.10;;;;;;4994004;28;20522;-57
2021/04/09 08:09:01;;;;;;;7.10;4.17;;;11.20;74.70;;;;;;4993614;28;20174;-56
2021/04/09 08:11:32;;;;;;;6.30;4.40;;;11.50;75.90;;;;;;4994178;28;20435;-57
2021/04/09 08:14:04;;;;;;;4.60;3.60;;;11.90;76.60;;;;;;4993369;28;20405;-57
2021/04/09 08:16:35;;;;;;;4.07;3.67;;;12.00;74.10;;;;;;4993917;28;20455;-57
2021/04/09 08:19:05;;;;;;;5.40;4.57;;;12.10;72.30;;;;;;4993919;28;20428;-56
2021/04/09 08:21:33;;;;;;;5.20;4.17;;;12.20;71.50;;;;;;4993975;28;20393;-57
2021/04/09 08:23:59;;;;;;;4.93;4.20;;;12.60;71.70;;;;;;4994322;28;20444;-57
2021/04/09 08:26:26;;;;;;;5.80;3.93;;;12.90;69.30;;;;;;4993748;28;20408;-57
2021/04/09 08:28:52;;;;;;;5.37;4.20;;;13.20;68.60;;;;;;4993816;28;20442;-56
2021/04/09 08:31:18;;;;;;;7.43;4.07;;;13.10;66.20;;;;;;4994055;28;20438;-56
2021/04/09 08:33:46;;;;;;;5.70;4.37;;;13.00;66.80;;;;;;4992588;28;20420;-56
2021/04/09 08:36:12;;;;;;;6.20;4.10;;;13.30;66.00;;;;;;4993990;28;20479;-57
2021/04/09 08:38:38;;;;;;;5.27;4.07;;;12.90;66.60;;;;;;4993533;28;20920;-57
2021/04/09 08:41:03;;;;;;;5.73;4.20;;;12.50;65.40;;;;;;4993991;28;20523;-53
2021/04/09 08:43:30;;;;;;;11.73;4.77;;;12.80;66.30;;;;;;4993551;28;20451;-57
2021/04/09 08:45:56;;;;;;;6.43;4.40;;;13.00;67.20;;;;;;4993601;28;20722;-56
2021/04/09 08:48:24;;;;;;;5.63;4.50;;;13.00;66.70;;;;;;4993657;28;20429;-54
2021/04/09 08:50:49;;;;;;;6.03;4.20;;;12.80;66.20;;;;;;4993931;28;20408;-56
2021/04/09 08:53:25;;;;;;;6.53;4.50;;;12.70;66.70;;;;;;4993649;28;20913;-57
2021/04/09 08:55:51;;;;;;;5.20;4.37;;;12.60;66.20;;;;;;4993458;28;20165;-57
2021/04/09 08:58:18;;;;;;;5.90;3.70;;;12.80;66.50;;;;;;4993823;28;20436;-55
2021/04/09 09:00:45;;;;;;;6.30;4.00;;;13.30;67.40;;;;;;4993215;28;20419;-57
2021/04/09 09:03:28;;;;;;;4.40;4.00;;;13.40;65.60;;;;;;4993495;28;20401;-55
2021/04/09 09:05:56;;;;;;;6.70;4.20;;;13.20;64.10;;;;;;4993384;28;20408;-56
2021/04/09 09:08:22;;;;;;;3.93;3.57;;;13.10;63.40;;;;;;4993227;28;20436;-56
2021/04/09 09:10:48;;;;;;;4.67;3.60;;;13.10;64.20;;;;;;4993293;28;20407;-57
2021/04/09 09:13:22;;;;;;;4.17;3.70;;;13.40;63.70;;;;;;4993559;28;20429;-56
2021/04/09 09:15:57;;;;;;;7.57;4.00;;;13.60;64.40;;;;;;4993989;28;20404;-56
2021/04/09 09:18:23;;;;;;;3.87;3.20;;;13.50;62.70;;;;;;4993421;28;20393;-55
2021/04/09 09:21:11;;;;;;;4.13;3.20;;;13.50;62.30;;;;;;4996498;28;20423;-56
2021/04/09 09:23:56;;;;;;;6.63;3.63;;;13.50;63.10;;;;;;5000768;28;20264;-57
2021/04/09 09:26:40;;;;;;;5.30;3.20;;;13.60;62.90;;;;;;5016464;28;20383;-55
2021/04/09 09:29:24;;;;;;;9.40;3.87;;;13.80;61.80;;;;;;5016189;28;20463;-57
2021/04/09 09:31:52;;;;;;;6.37;3.93;;;13.90;62.70;;;;;;5016145;28;20396;-54
2021/04/09 09:34:21;;;;;;;10.43;4.00;;;14.20;61.00;;;;;;5016260;28;20402;-54
2021/04/09 09:37:11;;;;;;;5.07;3.50;;;14.60;61.50;;;;;;5016573;28;20972;-57
2021/04/09 09:39:52;;;;;;;4.77;3.67;;;14.40;59.10;;;;;;5041262;22;20480;-56
2021/04/09 09:42:20;;;;;;;4.77;3.77;;;14.50;59.60;;;;;;5016365;28;20412;-58
2021/04/09 09:44:54;;;;;;;5.63;3.60;;;14.00;58.20;;;;;;5015940;28;20396;-59
2021/04/09 09:47:22;;;;;;;5.27;3.70;;;13.90;58.00;;;;;;5014990;28;20409;-58
2021/04/09 09:53:03;;;;;;;5.67;3.70;;;14.50;58.90;;;;;;5024904;28;20427;-59
2021/04/09 09:55:32;;;;;;;4.77;2.93;;;14.60;57.30;;;;;;5017269;28;20752;-59
2021/04/09 09:58:17;;;;;;;4.63;3.27;;;14.30;56.30;;;;;;5015610;28;20443;-59
2021/04/09 10:00:51;;;;;;;4.17;3.53;;;14.30;57.40;;;;;;5015592;28;20430;-59
2021/04/09 10:03:33;;;;;;;4.80;3.63;;;14.70;56.80;;;;;;5016265;28;20389;-59
2021/04/09 10:06:13;;;;;;;3.17;2.83;;;15.10;56.20;;;;;;5015377;28;20443;-59
2021/04/09 10:08:41;;;;;;;3.23;2.93;;;15.20;55.50;;;;;;5015487;28;20393;-59
2021/04/09 10:11:14;;;;;;;3.90;3.50;;;15.50;54.70;;;;;;5014767;28;20426;-59
2021/04/09 10:13:42;;;;;;;3.70;3.23;;;15.50;55.80;;;;;;5015286;28;20438;-58
2021/04/09 10:16:10;;;;;;;5.37;3.93;;;15.50;57.70;;;;;;5014807;28;20457;-59
2021/04/09 10:18:38;;;;;;;3.53;3.13;;;15.40;55.90;;;;;;5015092;28;20778;-59
2021/04/09 10:21:12;;;;;;;4.23;2.80;;;15.50;54.70;;;;;;5014726;28;20500;-58
2021/04/09 10:23:38;;;;;;;3.63;3.17;;;15.60;56.20;;;;;;5015259;28;20828;-59
2021/04/09 10:26:03;;;;;;;4.20;3.30;;;15.60;54.30;;;;;;5015485;28;20418;-59
2021/04/09 10:28:36;;;;;;;5.47;3.13;;;15.60;53.50;;;;;;5014834;28;20175;-58
2021/04/09 10:31:19;;;;;;;3.83;3.27;;;15.70;53.30;;;;;;5014420;28;20210;-56
2021/04/09 10:33:50;;;;;;;4.80;3.10;;;15.40;53.10;;;;;;5014990;28;20387;-59
2021/04/09 10:36:17;;;;;;;4.10;3.20;;;15.40;53.90;;;;;;5014775;28;20444;-58
2021/04/09 10:38:43;;;;;;;3.40;3.07;;;15.60;55.80;;;;;;5015116;28;20838;-59
2021/04/09 10:41:30;;;;;;;3.50;3.10;;;15.60;55.30;;;;;;5014362;28;20528;-59
2021/04/09 10:44:01;;;;;;;10.43;3.03;;;15.70;55.20;;;;;;5014636;28;20396;-59
2021/04/09 10:46:35;;;;;;;5.30;3.07;;;15.70;53.60;;;;;;5013335;28;20453;-59
2021/04/09 10:49:06;;;;;;;4.57;3.10;;;15.80;54.30;;;;;;5014789;28;20447;-58
2021/04/09 10:51:35;;;;;;;6.67;3.17;;;15.50;53.90;;;;;;5014371;28;20430;-59
2021/04/09 10:54:05;;;;;;;3.80;2.90;;;15.70;54.40;;;;;;5014595;28;20415;-59
2021/04/09 10:56:30;;;;;;;7.07;3.27;;;16.10;54.30;;;;;;5014152;28;20755;-58
2021/04/09 10:58:56;;;;;;;6.87;3.60;;;16.10;53.10;;;;;;5014123;28;20490;-60
2021/04/09 11:01:26;;;;;;;3.80;2.87;;;15.80;53.80;;;;;;5014154;28;20206;-59
2021/04/09 11:03:58;;;;;;;3.23;2.67;;;15.70;54.00;;;;;;5014296;28;20166;-59
2021/04/09 11:06:24;;;;;;;5.03;2.80;;;15.90;54.00;;;;;;5014489;28;20402;-59
2021/04/09 11:08:58;;;;;;;4.10;2.80;;;16.00;53.80;;;;;;5016583;28;20413;-59
2021/04/09 11:11:29;;;;;;;4.43;3.43;;;16.10;53.60;;;;;;5014443;28;20662;-59
2021/04/09 11:14:03;;;;;;;4.17;3.53;;;15.80;53.30;;;;;;5014198;28;20755;-59
2021/04/09 11:16:45;;;;;;;4.80;2.90;;;15.90;54.00;;;;;;5014048;28;20810;-58
2021/04/09 11:19:24;;;;;;;4.77;3.40;;;16.20;55.90;;;;;;5013668;28;20405;-57
2021/04/09 11:21:51;;;;;;;5.90;3.30;;;16.10;53.50;;;;;;5014142;28;20425;-59
2021/04/09 11:24:32;;;;;;;8.97;3.40;;;16.10;54.50;;;;;;5014103;28;20436;-59
2021/04/09 11:27:00;;;;;;;3.50;3.03;;;16.20;55.40;;;;;;5013024;28;20478;-59
2021/04/09 11:29:31;;;;;;;4.00;3.33;;;16.00;53.00;;;;;;5013512;28;20426;-58
2021/04/09 11:32:17;;;;;;;5.40;2.83;;;16.50;54.40;;;;;;5013822;28;20506;-57
2021/04/09 11:34:50;;;;;;;3.83;3.00;;;16.50;52.70;;;;;;5013749;28;20401;-58
2021/04/09 11:37:18;;;;;;;3.93;3.00;;;16.40;53.00;;;;;;5013938;28;20434;-58
2021/04/09 11:39:48;;;;;;;5.13;3.17;;;16.20;52.80;;;;;;5013513;28;20457;-58
2021/04/09 11:42:13;;;;;;;4.00;3.17;;;16.00;52.00;;;;;;5013740;28;20411;-58
2021/04/09 11:44:40;;;;;;;3.70;3.10;;;16.10;54.20;;;;;;5013762;28;20758;-58
2021/04/09 11:47:22;;;;;;;4.10;3.17;;;16.40;53.30;;;;;;5013569;28;20175;-58
2021/04/09 11:50:01;;;;;;;5.40;3.47;;;16.70;54.20;;;;;;5013487;28;20448;-58
2021/04/09 11:52:27;;;;;;;6.37;3.20;;;16.70;52.20;;;;;;5013632;28;20389;-59
2021/04/09 11:54:54;;;;;;;4.20;2.87;;;16.50;54.10;;;;;;5001064;28;20419;-59
2021/04/09 11:57:24;;;;;;;5.70;3.13;;;16.70;52.20;;;;;;5013002;28;20448;-58
2021/04/09 11:59:50;;;;;;;3.80;2.80;;;17.30;52.10;;;;;;5013549;28;20417;-59
2021/04/09 12:02:26;;;;;;;5.27;3.30;;;17.20;49.90;;;;;;5013509;28;20457;-59
2021/04/09 12:04:54;;;;;;;4.23;2.60;;;17.00;49.80;;;;;;5013377;28;20476;-59
2021/04/09 12:07:27;;;;;;;3.80;3.20;;;17.60;52.20;;;;;;5013366;28;20415;-59
2021/04/09 12:09:55;;;;;;;5.53;2.67;;;18.20;50.20;;;;;;5013189;28;20438;-59
2021/04/09 12:12:21;;;;;;;2.80;2.50;;;19.40;48.00;;;;;;5013624;28;20415;-59
2021/04/09 12:14:48;;;;;;;6.03;2.83;;;19.10;46.20;;;;;;5013471;28;20415;-58
2021/04/09 12:17:15;;;;;;;3.50;2.67;;;19.00;46.60;;;;;;5013057;28;20470;-59
2021/04/09 12:19:42;;;;;;;3.63;2.90;;;19.20;46.30;;;;;;5012997;28;20931;-59
2021/04/09 12:22:09;;;;;;;5.17;3.07;;;19.10;45.10;;;;;;5013123;28;20398;-59
2021/04/09 12:24:35;;;;;;;4.90;3.10;;;19.00;45.10;;;;;;5012910;28;20399;-58
2021/04/09 12:27:01;;;;;;;5.53;1.93;;;18.50;45.20;;;;;;5013285;28;20447;-56
2021/04/09 12:29:27;;;;;;;4.20;2.37;;;18.10;44.20;;;;;;5013272;28;20796;-58
2021/04/09 12:31:53;;;;;;;4.73;2.50;;;18.50;45.20;;;;;;5013211;28;20413;-57
2021/04/09 12:34:19;;;;;;;3.50;2.67;;;19.20;47.30;;;;;;5012994;28;20262;-59
2021/04/09 12:36:45;;;;;;;3.33;2.10;;;19.30;45.40;;;;;;5012930;28;20192;-58
2021/04/09 12:39:12;;;;;;;2.97;2.67;;;19.00;43.30;;;;;;5013129;28;20426;-59
2021/04/09 12:41:37;;;;;;;3.13;2.40;;;18.80;44.10;;;;;;5012884;28;20395;-59
2021/04/09 12:44:05;;;;;;;5.20;2.57;;;19.60;43.20;;;;;;5012118;28;20414;-59
2021/04/09 12:46:31;;;;;;;3.27;2.30;;;20.30;43.60;;;;;;5021581;28;20427;-57
2021/04/09 12:48:57;;;;;;;4.80;2.40;;;21.20;43.70;;;;;;5012750;28;20407;-57
2021/04/09 12:51:23;;;;;;;3.70;2.53;;;21.40;41.70;;;;;;5013420;28;20410;-57
2021/04/09 12:53:49;;;;;;;3.63;2.33;;;22.60;40.70;;;;;;5013043;28;20410;-56
2021/04/09 12:56:16;;;;;;;2.60;1.83;;;22.30;40.60;;;;;;5015746;28;20803;-58
2021/04/09 12:58:43;;;;;;;5.60;2.50;;;22.30;40.80;;;;;;5016848;28;20528;-57
2021/04/09 13:01:09;;;;;;;2.50;2.30;;;22.10;40.20;;;;;;5016835;28;20784;-57
2021/04/09 13:03:35;;;;;;;2.73;2.20;;;23.10;38.90;;;;;;5016573;28;20762;-59
2021/04/09 13:06:01;;;;;;;3.33;2.80;;;23.60;38.50;;;;;;5016518;28;20410;-58